Terminal Aerodrome Forecast
Issued by NWS

Home | Current Version | Previous Version | Text Only | Print | Product List | Glossary On
Versions: 1 2 3 4 5 6 7 8 9 10 11 12 13 14 15 16 17 18 19 20 21 22 23 24 25 26
686
FTUS41 KBUF 242104 AAA
TAFIAG
TAF AMD
KIAG 242104Z 2421/2518 22014KT P6SM SCT250
     FM242300 19006KT P6SM BKN250
     FM250600 19009KT P6SM VCSH OVC050
     FM251200 24010G17KT P6SM SCT012 SCT025 BKN035
     FM251700 24014G21KT P6SM BKN030=

USA.gov is the U.S. government's official web portal to all federal, state and local government web resources and services.